createdAt,value
2018-12-31T00:02:09.885Z,72.64
2018-12-31T00:04:41.258Z,72.64
2018-12-31T00:07:12.505Z,72.25
2018-12-31T00:09:44.692Z,72.80
2018-12-31T00:12:16.081Z,72.79
2018-12-31T00:14:47.478Z,72.83
2018-12-31T00:17:19.143Z,73.73
2018-12-31T00:19:50.846Z,73.64
2018-12-31T00:22:22.309Z,73.64
2018-12-31T00:24:53.509Z,73.63
2018-12-31T00:27:25.258Z,73.45
2018-12-31T00:29:56.628Z,73.35
2018-12-31T00:32:28.179Z,73.72
2018-12-31T00:34:59.477Z,73.72
2018-12-31T00:37:31.000Z,73.66
2018-12-31T00:40:03.156Z,73.51
2018-12-31T00:42:34.647Z,73.56
2018-12-31T00:45:06.696Z,73.47
2018-12-31T00:47:38.196Z,73.53
2018-12-31T00:50:09.445Z,73.53
2018-12-31T00:52:40.839Z,74.21
2018-12-31T00:55:12.290Z,73.90
2018-12-31T00:57:43.531Z,74.02
2018-12-31T01:00:14.781Z,73.19
2018-12-31T01:02:46.307Z,73.19
2018-12-31T01:05:17.475Z,73.69
2018-12-31T01:07:49.281Z,73.97
2018-12-31T01:10:21.499Z,73.97
2018-12-31T01:12:52.826Z,74.31
2018-12-31T01:15:24.360Z,74.31
2018-12-31T01:17:55.878Z,73.64
2018-12-31T01:20:27.391Z,73.64
2018-12-31T01:22:59.023Z,74.48
2018-12-31T01:25:30.273Z,74.48
2018-12-31T01:28:01.913Z,74.63
2018-12-31T01:30:33.219Z,74.19
2018-12-31T01:33:04.432Z,74.42
2018-12-31T01:35:35.892Z,74.51
2018-12-31T01:38:07.184Z,74.63
2018-12-31T01:40:39.372Z,74.63
2018-12-31T01:43:10.693Z,75.18
2018-12-31T01:45:42.306Z,75.18
2018-12-31T01:48:13.529Z,75.14
2018-12-31T01:50:44.795Z,75.14
2018-12-31T01:53:16.370Z,74.69
2018-12-31T01:55:47.702Z,74.69
2018-12-31T01:58:19.176Z,74.58
2018-12-31T02:00:50.379Z,74.58
2018-12-31T02:03:21.631Z,74.67
2018-12-31T02:05:53.131Z,74.87
2018-12-31T02:08:24.669Z,74.87
2018-12-31T02:10:56.678Z,75.09
2018-12-31T02:13:28.012Z,75.09
2018-12-31T02:15:59.142Z,75.18
2018-12-31T02:18:30.592Z,75.00
2018-12-31T02:21:01.951Z,75.01
2018-12-31T02:23:33.247Z,75.09
2018-12-31T02:26:04.431Z,74.79
2018-12-31T02:28:35.883Z,74.79
2018-12-31T02:31:07.673Z,75.10
2018-12-31T02:33:39.099Z,74.78
2018-12-31T02:36:10.772Z,74.72
2018-12-31T02:38:42.121Z,74.77
2018-12-31T02:41:13.986Z,74.77
2018-12-31T02:43:45.498Z,69.60
2018-12-31T02:46:16.995Z,69.60
2018-12-31T02:48:48.175Z,68.72
2018-12-31T02:51:19.814Z,68.60
2018-12-31T02:53:51.020Z,68.16
2018-12-31T02:56:22.486Z,68.26
2018-12-31T02:58:53.690Z,69.08
2018-12-31T03:01:25.241Z,68.97
2018-12-31T03:03:56.763Z,68.97
2018-12-31T03:06:28.088Z,68.78
2018-12-31T03:08:59.290Z,68.78
2018-12-31T03:11:30.991Z,68.61
2018-12-31T03:14:02.199Z,68.71
2018-12-31T03:16:33.482Z,68.71
2018-12-31T03:19:04.719Z,68.88
2018-12-31T03:21:35.966Z,68.53
2018-12-31T03:24:07.192Z,68.53
2018-12-31T03:26:38.435Z,68.34
2018-12-31T03:29:10.092Z,68.34
2018-12-31T03:31:41.132Z,68.51
2018-12-31T03:34:12.390Z,68.43
2018-12-31T03:36:45.047Z,68.43
2018-12-31T03:39:16.574Z,68.33
2018-12-31T03:41:48.265Z,68.33
2018-12-31T03:44:19.541Z,67.86
2018-12-31T03:46:50.863Z,67.79
2018-12-31T03:49:22.107Z,67.90
2018-12-31T03:51:53.642Z,67.90
2018-12-31T03:54:25.048Z,67.93
2018-12-31T03:56:56.255Z,67.96
2018-12-31T03:59:27.697Z,67.82
2018-12-31T04:01:59.169Z,67.86
2018-12-31T04:04:30.781Z,67.22
2018-12-31T04:07:02.539Z,67.22
2018-12-31T04:09:34.999Z,67.26
2018-12-31T04:12:07.173Z,67.26
2018-12-31T04:14:38.711Z,67.18
2018-12-31T04:17:09.979Z,67.18
2018-12-31T04:19:41.344Z,66.85
2018-12-31T04:22:13.080Z,67.03
2018-12-31T04:24:44.652Z,67.19
2018-12-31T04:27:16.079Z,67.19
2018-12-31T04:29:47.759Z,67.05
2018-12-31T04:32:19.112Z,67.09
2018-12-31T04:34:50.455Z,66.84
2018-12-31T04:37:21.781Z,66.84
2018-12-31T04:39:53.323Z,67.25
2018-12-31T04:42:24.998Z,66.80
2018-12-31T04:44:56.287Z,67.88
2018-12-31T04:47:27.763Z,67.88
2018-12-31T04:49:59.328Z,67.20
2018-12-31T04:52:30.579Z,68.17
2018-12-31T04:55:02.186Z,68.19
2018-12-31T04:57:33.483Z,68.62
2018-12-31T05:00:05.285Z,68.67
2018-12-31T05:02:36.900Z,68.24
2018-12-31T05:05:08.271Z,68.34
2018-12-31T05:07:39.442Z,68.17
2018-12-31T05:10:11.259Z,68.17
2018-12-31T05:12:43.089Z,67.15
2018-12-31T05:15:14.857Z,67.17
2018-12-31T05:17:46.614Z,66.74
2018-12-31T05:20:19.039Z,66.74
2018-12-31T05:22:50.584Z,66.53
2018-12-31T05:25:21.947Z,65.25
2018-12-31T05:27:53.273Z,64.96
2018-12-31T05:30:25.224Z,65.30
2018-12-31T05:32:56.656Z,65.36
2018-12-31T05:35:28.206Z,63.55
2018-12-31T05:37:59.920Z,63.55
2018-12-31T05:40:31.567Z,63.75
2018-12-31T05:43:03.388Z,64.57
2018-12-31T05:45:35.052Z,63.95
2018-12-31T05:48:06.700Z,63.95
2018-12-31T05:50:38.270Z,60.65
2018-12-31T05:53:10.027Z,60.32
2018-12-31T05:55:41.675Z,60.32
2018-12-31T05:58:12.999Z,61.45
2018-12-31T06:00:44.655Z,61.26
2018-12-31T06:03:16.203Z,63.01
2018-12-31T06:05:47.951Z,63.01
2018-12-31T06:08:19.477Z,63.10
2018-12-31T06:10:51.009Z,61.84
2018-12-31T06:13:22.995Z,61.15
2018-12-31T06:15:55.048Z,62.47
2018-12-31T06:18:26.752Z,58.78
2018-12-31T06:20:58.973Z,57.11
2018-12-31T06:23:30.385Z,57.97
2018-12-31T06:26:02.046Z,56.85
2018-12-31T06:28:33.542Z,56.25
2018-12-31T06:31:05.152Z,56.25
2018-12-31T06:33:36.663Z,56.91
2018-12-31T06:36:08.040Z,56.43
2018-12-31T06:38:39.725Z,58.03
2018-12-31T06:41:11.212Z,56.24
2018-12-31T06:43:43.266Z,55.45
2018-12-31T06:46:14.663Z,55.71
2018-12-31T06:48:46.699Z,55.71
2018-12-31T06:51:18.323Z,55.73
2018-12-31T06:53:49.893Z,54.05
2018-12-31T06:56:21.663Z,52.96
2018-12-31T06:58:53.218Z,53.04
2018-12-31T07:01:24.443Z,53.04
2018-12-31T07:03:56.095Z,52.95
2018-12-31T07:06:27.845Z,52.95
2018-12-31T07:08:59.355Z,51.53
2018-12-31T07:11:31.223Z,50.19
2018-12-31T07:14:03.323Z,50.19
2018-12-31T07:16:34.675Z,48.36
2018-12-31T07:19:06.050Z,47.78
2018-12-31T07:21:37.337Z,47.78
2018-12-31T07:24:08.940Z,50.82
2018-12-31T07:26:40.497Z,50.82
2018-12-31T07:29:11.828Z,47.72
2018-12-31T07:31:44.355Z,48.88
2018-12-31T07:34:15.551Z,48.88
2018-12-31T07:36:46.843Z,49.12
2018-12-31T07:39:18.366Z,49.12
2018-12-31T07:41:49.744Z,47.36
2018-12-31T07:44:21.689Z,47.36
2018-12-31T07:46:53.414Z,47.77
2018-12-31T07:49:25.246Z,47.77
2018-12-31T07:51:56.605Z,47.65
2018-12-31T07:54:28.132Z,45.01
2018-12-31T07:57:00.348Z,43.68
2018-12-31T07:59:31.573Z,43.68
2018-12-31T08:02:02.917Z,44.15
2018-12-31T08:04:34.345Z,44.15
2018-12-31T08:07:05.653Z,42.81
2018-12-31T08:09:37.013Z,45.36
2018-12-31T08:12:08.477Z,47.66
2018-12-31T08:14:40.364Z,48.55
2018-12-31T08:17:11.753Z,48.55
2018-12-31T08:19:43.332Z,48.12
2018-12-31T08:22:15.077Z,44.00
2018-12-31T08:24:46.863Z,46.49
2018-12-31T08:27:18.125Z,46.49
2018-12-31T08:29:49.572Z,48.53
2018-12-31T08:32:21.703Z,47.26
2018-12-31T08:34:53.626Z,48.81
2018-12-31T08:37:25.683Z,48.17
2018-12-31T08:39:58.036Z,48.89
2018-12-31T08:42:29.679Z,49.03
2018-12-31T08:45:01.518Z,48.68
2018-12-31T08:47:33.117Z,49.51
2018-12-31T08:50:04.674Z,48.90
2018-12-31T08:52:36.105Z,48.90
2018-12-31T08:55:07.832Z,48.63
2018-12-31T08:57:39.659Z,48.64
2018-12-31T09:00:11.446Z,48.64
2018-12-31T09:02:42.665Z,47.31
2018-12-31T09:05:14.367Z,47.39
2018-12-31T09:07:46.862Z,48.93
2018-12-31T09:10:18.167Z,49.54
2018-12-31T09:12:49.114Z,48.79
2018-12-31T09:15:21.010Z,49.07
2018-12-31T09:17:52.173Z,48.06
2018-12-31T09:20:24.185Z,47.92
2018-12-31T09:22:55.372Z,48.20
2018-12-31T09:25:26.678Z,47.54
2018-12-31T09:27:58.026Z,48.44
2018-12-31T09:30:29.797Z,48.44
2018-12-31T09:33:01.281Z,47.21
2018-12-31T09:35:32.709Z,47.21
2018-12-31T09:38:04.005Z,48.33
2018-12-31T09:40:35.351Z,48.26
2018-12-31T09:43:06.488Z,48.26
2018-12-31T09:45:38.535Z,48.88
2018-12-31T09:48:09.712Z,47.13
2018-12-31T09:50:41.611Z,47.13
2018-12-31T09:53:12.868Z,47.21
2018-12-31T09:55:44.322Z,47.12
2018-12-31T09:58:15.741Z,47.28
2018-12-31T10:00:47.200Z,48.04
2018-12-31T10:03:18.328Z,48.04
2018-12-31T10:05:49.536Z,48.61
2018-12-31T10:08:20.777Z,49.41
2018-12-31T10:10:52.242Z,49.41
2018-12-31T10:13:23.442Z,49.73
2018-12-31T10:15:57.710Z,49.73
2018-12-31T10:18:29.032Z,49.63
2018-12-31T10:21:00.859Z,49.75
2018-12-31T10:23:32.093Z,50.91
2018-12-31T10:26:03.393Z,50.91
2018-12-31T10:28:34.650Z,52.56
2018-12-31T10:31:06.483Z,53.22
2018-12-31T10:33:38.335Z,53.70
2018-12-31T10:36:10.809Z,54.15
2018-12-31T10:38:42.881Z,54.06
2018-12-31T10:41:14.269Z,54.06
2018-12-31T10:43:45.413Z,54.65
2018-12-31T10:46:17.322Z,54.53
2018-12-31T10:48:48.912Z,54.61
2018-12-31T10:51:20.337Z,54.93
2018-12-31T10:53:51.936Z,54.94
2018-12-31T10:56:23.804Z,55.86
2018-12-31T10:58:55.460Z,55.86
2018-12-31T11:01:28.371Z,55.94
2018-12-31T11:03:59.451Z,56.24
2018-12-31T11:06:31.122Z,56.24
2018-12-31T11:09:02.324Z,56.29
2018-12-31T11:11:34.338Z,56.29
2018-12-31T11:14:05.398Z,56.33
2018-12-31T11:16:37.554Z,56.62
2018-12-31T11:19:08.990Z,56.59
2018-12-31T11:21:40.755Z,56.59
2018-12-31T11:24:12.816Z,57.05
2018-12-31T11:26:44.468Z,57.17
2018-12-31T11:29:15.934Z,57.24
2018-12-31T11:31:47.248Z,57.16
2018-12-31T11:34:19.178Z,57.54
2018-12-31T11:36:50.877Z,57.70
2018-12-31T11:39:22.298Z,57.75
2018-12-31T11:41:53.790Z,58.06
2018-12-31T11:44:25.083Z,58.11
2018-12-31T11:46:57.345Z,58.19
2018-12-31T11:49:28.536Z,58.30
2018-12-31T11:52:00.060Z,58.38
2018-12-31T11:54:31.519Z,58.73
2018-12-31T11:57:03.236Z,58.94
2018-12-31T11:59:34.392Z,59.63
2018-12-31T12:02:06.165Z,59.63
2018-12-31T12:04:37.367Z,59.67
2018-12-31T12:07:08.728Z,60.01
2018-12-31T12:09:39.988Z,60.21
2018-12-31T12:12:11.398Z,60.21
2018-12-31T12:14:42.953Z,60.22
2018-12-31T12:17:15.005Z,60.40
2018-12-31T12:19:46.181Z,60.52
2018-12-31T12:22:17.590Z,60.87
2018-12-31T12:24:49.554Z,60.87
2018-12-31T12:27:21.314Z,60.66
2018-12-31T12:29:52.345Z,60.68
2018-12-31T12:32:23.631Z,60.76
2018-12-31T12:34:55.861Z,60.98
2018-12-31T12:37:27.436Z,60.98
2018-12-31T12:39:58.892Z,60.66
2018-12-31T12:42:30.523Z,60.58
2018-12-31T12:45:02.019Z,60.58
2018-12-31T12:47:34.262Z,60.56
2018-12-31T12:50:05.877Z,60.90
2018-12-31T12:52:37.293Z,61.46
2018-12-31T12:55:08.535Z,61.66
2018-12-31T12:57:39.922Z,61.66
2018-12-31T13:00:11.390Z,61.71
2018-12-31T13:02:43.147Z,61.82
2018-12-31T13:05:14.311Z,62.03
2018-12-31T13:07:46.973Z,62.52
2018-12-31T13:10:18.613Z,62.40
2018-12-31T13:12:51.260Z,62.40
2018-12-31T13:15:22.434Z,62.38
2018-12-31T13:17:54.608Z,62.49
2018-12-31T13:20:25.934Z,62.49
2018-12-31T13:22:57.721Z,62.34
2018-12-31T13:25:28.972Z,62.61
2018-12-31T13:28:00.436Z,62.61
2018-12-31T13:30:33.287Z,62.62
2018-12-31T13:33:05.148Z,62.58
2018-12-31T13:35:36.671Z,62.58
2018-12-31T13:38:08.354Z,62.59
2018-12-31T13:40:39.759Z,62.62
2018-12-31T13:43:11.525Z,62.62
2018-12-31T13:45:43.003Z,63.01
2018-12-31T13:48:14.679Z,62.76
2018-12-31T13:50:46.191Z,62.53
2018-12-31T13:53:17.971Z,62.53
2018-12-31T13:55:49.223Z,62.17
2018-12-31T13:58:20.971Z,62.12
2018-12-31T14:00:52.147Z,62.14
2018-12-31T14:03:23.902Z,62.22
2018-12-31T14:05:55.049Z,62.73
2018-12-31T14:08:26.506Z,63.07
2018-12-31T14:10:57.698Z,63.07
2018-12-31T14:13:29.200Z,64.45
2018-12-31T14:16:00.928Z,64.45
2018-12-31T14:18:32.714Z,64.63
2018-12-31T14:21:03.955Z,64.63
2018-12-31T14:23:35.509Z,64.49
2018-12-31T14:26:07.119Z,64.49
2018-12-31T14:28:38.686Z,64.12
2018-12-31T14:31:10.041Z,64.57
2018-12-31T14:33:41.577Z,65.44
2018-12-31T14:36:13.044Z,66.15
2018-12-31T14:38:45.502Z,66.15
2018-12-31T14:41:17.616Z,66.50
2018-12-31T14:43:49.279Z,66.50
2018-12-31T14:46:20.401Z,66.43
2018-12-31T14:48:52.317Z,66.49
2018-12-31T14:51:24.218Z,66.48
2018-12-31T14:53:55.762Z,66.81
2018-12-31T14:56:27.140Z,66.88
2018-12-31T14:58:58.968Z,66.88
2018-12-31T15:01:31.729Z,66.72
2018-12-31T15:04:03.129Z,67.22
2018-12-31T15:06:34.377Z,67.22
2018-12-31T15:09:07.688Z,67.20
2018-12-31T15:11:45.406Z,67.23
2018-12-31T15:14:17.096Z,67.23
2018-12-31T15:16:49.151Z,67.08
2018-12-31T15:19:20.820Z,67.06
2018-12-31T15:21:52.228Z,67.06
2018-12-31T15:24:23.556Z,67.46
2018-12-31T15:26:54.950Z,67.33
2018-12-31T15:29:27.612Z,68.11
2018-12-31T15:31:59.090Z,67.54
2018-12-31T15:34:30.923Z,67.41
2018-12-31T15:37:02.555Z,67.41
2018-12-31T15:39:34.041Z,67.73
2018-12-31T15:42:05.673Z,67.94
2018-12-31T15:44:36.726Z,67.94
2018-12-31T15:47:08.228Z,68.13
2018-12-31T15:49:40.349Z,68.33
2018-12-31T15:52:11.790Z,68.30
2018-12-31T15:54:43.214Z,68.13
2018-12-31T15:57:14.755Z,68.13
2018-12-31T15:59:45.836Z,68.39
2018-12-31T16:02:17.083Z,68.29
2018-12-31T16:04:48.109Z,68.29
2018-12-31T16:07:19.552Z,68.47
2018-12-31T16:09:50.603Z,68.47
2018-12-31T16:12:22.079Z,68.49
2018-12-31T16:14:53.397Z,68.57
2018-12-31T16:17:24.822Z,68.76
2018-12-31T16:19:56.626Z,68.87
2018-12-31T16:22:28.009Z,68.87
2018-12-31T16:24:59.308Z,69.00
2018-12-31T16:27:30.835Z,69.24
2018-12-31T16:30:02.062Z,69.28
2018-12-31T16:32:33.440Z,69.23
2018-12-31T16:35:04.757Z,69.23
2018-12-31T16:37:36.370Z,69.20
2018-12-31T16:40:08.439Z,69.13
2018-12-31T16:42:40.709Z,69.41
2018-12-31T16:45:12.186Z,69.41
2018-12-31T16:47:43.780Z,69.95
2018-12-31T16:50:15.835Z,69.44
2018-12-31T16:52:47.083Z,69.44
2018-12-31T16:55:18.617Z,69.21
2018-12-31T16:57:54.132Z,69.21
2018-12-31T17:00:25.933Z,69.36
2018-12-31T17:02:59.442Z,68.94
2018-12-31T17:05:31.003Z,68.94
2018-12-31T17:08:02.410Z,69.54
2018-12-31T17:10:33.794Z,69.82
2018-12-31T17:13:05.135Z,69.78
2018-12-31T17:15:36.454Z,69.78
2018-12-31T17:18:07.868Z,70.14
2018-12-31T17:20:39.996Z,70.14
2018-12-31T17:23:11.443Z,70.17
2018-12-31T17:25:42.743Z,69.62
2018-12-31T17:28:14.017Z,69.62
2018-12-31T17:30:45.194Z,69.70
2018-12-31T17:33:17.298Z,69.74
2018-12-31T17:35:49.477Z,69.86
2018-12-31T17:38:22.507Z,69.86
2018-12-31T17:40:54.356Z,71.09
2018-12-31T17:43:26.113Z,71.09
2018-12-31T17:45:57.404Z,70.27
2018-12-31T17:48:28.895Z,70.15
2018-12-31T17:51:01.049Z,70.54
2018-12-31T17:53:33.030Z,70.54
2018-12-31T17:56:04.378Z,70.46
2018-12-31T17:58:35.674Z,70.32
2018-12-31T18:01:06.900Z,70.44
2018-12-31T18:03:38.400Z,70.58
2018-12-31T18:06:09.589Z,70.24
2018-12-31T18:08:40.887Z,70.24
2018-12-31T18:11:13.183Z,70.24
2018-12-31T18:13:44.801Z,70.24
2018-12-31T18:16:16.070Z,70.44
2018-12-31T18:18:47.631Z,71.18
2018-12-31T18:21:19.727Z,71.18
2018-12-31T18:23:50.987Z,71.25
2018-12-31T18:26:22.439Z,70.93
2018-12-31T18:28:53.827Z,70.97
2018-12-31T18:31:25.176Z,71.19
2018-12-31T18:33:56.705Z,70.96
2018-12-31T18:36:27.967Z,70.78
2018-12-31T18:38:59.403Z,70.78
2018-12-31T18:41:31.253Z,71.62
2018-12-31T18:44:02.579Z,71.67
2018-12-31T18:46:34.419Z,71.38
2018-12-31T18:49:05.815Z,71.51
2018-12-31T18:51:37.866Z,71.08
2018-12-31T18:54:09.080Z,71.13
2018-12-31T18:56:40.404Z,71.26
2018-12-31T18:59:12.079Z,71.26
2018-12-31T19:01:43.725Z,71.21
2018-12-31T19:04:15.583Z,71.21
2018-12-31T19:06:46.997Z,71.85
2018-12-31T19:09:18.391Z,71.43
2018-12-31T19:11:49.691Z,71.43
2018-12-31T19:14:21.486Z,71.18
2018-12-31T19:16:52.867Z,71.14
2018-12-31T19:19:25.269Z,71.14
2018-12-31T19:21:57.288Z,71.19
2018-12-31T19:24:29.140Z,71.32
2018-12-31T19:27:00.805Z,71.15
2018-12-31T19:29:32.488Z,71.15
2018-12-31T19:32:04.253Z,70.94
2018-12-31T19:34:35.772Z,71.10
2018-12-31T19:37:07.023Z,71.16
2018-12-31T19:39:38.288Z,71.02
2018-12-31T19:42:10.388Z,71.02
2018-12-31T19:44:41.601Z,71.10
2018-12-31T19:47:13.049Z,71.45
2018-12-31T19:49:44.246Z,71.24
2018-12-31T19:52:16.427Z,71.24
2018-12-31T19:54:47.918Z,71.06
2018-12-31T19:57:19.425Z,71.05
2018-12-31T19:59:50.680Z,70.82
2018-12-31T20:02:22.671Z,70.48
2018-12-31T20:04:54.185Z,71.13
2018-12-31T20:07:26.176Z,71.05
2018-12-31T20:09:57.759Z,71.68
2018-12-31T20:12:29.532Z,71.11
2018-12-31T20:15:01.110Z,71.11
2018-12-31T20:17:32.808Z,71.11
2018-12-31T20:20:04.412Z,71.29
2018-12-31T20:22:36.316Z,71.28
2018-12-31T20:25:07.725Z,71.42
2018-12-31T20:27:39.518Z,71.42
2018-12-31T20:30:10.967Z,71.66
2018-12-31T20:32:42.393Z,71.23
2018-12-31T20:35:13.668Z,71.15
2018-12-31T20:37:45.278Z,71.12
2018-12-31T20:40:16.783Z,71.12
2018-12-31T20:42:48.708Z,71.61
2018-12-31T20:45:20.251Z,72.12
2018-12-31T20:47:52.072Z,71.97
2018-12-31T20:50:23.582Z,71.97
2018-12-31T20:52:55.694Z,71.74
2018-12-31T20:55:27.073Z,71.74
2018-12-31T20:57:58.521Z,71.60
2018-12-31T21:00:29.768Z,71.59
2018-12-31T21:03:01.201Z,71.59
2018-12-31T21:05:32.454Z,71.51
2018-12-31T21:08:03.899Z,71.89
2018-12-31T21:10:35.729Z,72.05
2018-12-31T21:13:07.483Z,72.05
2018-12-31T21:15:38.845Z,71.69
2018-12-31T21:18:10.659Z,71.53
2018-12-31T21:20:42.107Z,71.86
2018-12-31T21:23:14.006Z,71.56
2018-12-31T21:25:45.292Z,71.56
2018-12-31T21:28:16.827Z,71.93
2018-12-31T21:30:47.987Z,71.96
2018-12-31T21:33:19.473Z,71.88
2018-12-31T21:35:50.938Z,72.06
2018-12-31T21:38:23.785Z,72.50
2018-12-31T21:40:55.341Z,72.13
2018-12-31T21:43:27.608Z,72.35
2018-12-31T21:45:58.945Z,72.35
2018-12-31T21:48:30.304Z,72.31
2018-12-31T21:51:01.616Z,72.56
2018-12-31T21:53:33.492Z,72.56
2018-12-31T21:56:05.324Z,72.45
2018-12-31T21:58:37.036Z,72.45
2018-12-31T22:01:08.703Z,72.60
2018-12-31T22:03:40.489Z,72.47
2018-12-31T22:06:12.141Z,72.58
2018-12-31T22:08:43.557Z,72.58
2018-12-31T22:11:14.900Z,72.97
2018-12-31T22:13:46.310Z,72.97
2018-12-31T22:16:18.215Z,72.88
2018-12-31T22:18:49.770Z,72.69
2018-12-31T22:21:21.073Z,72.69
2018-12-31T22:23:52.843Z,72.18
2018-12-31T22:26:24.178Z,72.27
2018-12-31T22:28:55.766Z,72.11
2018-12-31T22:31:26.920Z,72.11
2018-12-31T22:33:58.322Z,72.43
2018-12-31T22:36:29.761Z,72.61
2018-12-31T22:39:01.091Z,72.25
2018-12-31T22:41:33.956Z,73.08
2018-12-31T22:44:05.893Z,73.08
2018-12-31T22:46:37.489Z,73.40
2018-12-31T22:49:09.612Z,73.49
2018-12-31T22:51:41.226Z,73.35
2018-12-31T22:54:13.517Z,73.35
2018-12-31T22:56:45.075Z,73.72
2018-12-31T22:59:16.967Z,73.71
2018-12-31T23:01:48.329Z,73.41
2018-12-31T23:04:19.783Z,73.06
2018-12-31T23:06:52.324Z,73.24
2018-12-31T23:09:23.735Z,73.24
2018-12-31T23:11:55.167Z,73.11
2018-12-31T23:14:26.936Z,73.11
2018-12-31T23:17:02.719Z,73.26
2018-12-31T23:19:41.303Z,73.20
2018-12-31T23:22:07.372Z,73.74
2018-12-31T23:24:39.369Z,73.97
2018-12-31T23:27:11.678Z,73.51
2018-12-31T23:29:42.873Z,73.51
2018-12-31T23:32:14.208Z,73.34
2018-12-31T23:34:46.013Z,73.34
2018-12-31T23:37:17.479Z,73.44
2018-12-31T23:39:48.973Z,73.33
2018-12-31T23:42:20.639Z,73.33
2018-12-31T23:44:53.361Z,73.21
2018-12-31T23:47:24.625Z,73.82
2018-12-31T23:49:55.974Z,73.82
2018-12-31T23:52:27.646Z,73.31
2018-12-31T23:54:59.865Z,73.31
2018-12-31T23:57:32.509Z,73.56
